Time;durP1;ratioP1;P1;durP2;ratioP2;P2;SDS_P1;SDS_P2;PMS_P1;PMS_P2;Temp;Humidity;BMP_temperature;BMP_pressure;BME280_temperature;BME280_humidity;BME280_pressure;Samples;Min_cycle;Max_cycle;Signal;HPM_P1;HPM_P2
2023/09/25 00:01:54;;;;;;;5.78;2.50;;;;;;;;;;7389336;19;20379;-58
2023/09/25 00:04:25;;;;;;;4.18;2.40;;;;;;;;;;7366716;19;20096;-60
2023/09/25 00:06:50;;;;;;;4.10;2.20;;;;;;;;;;7367684;19;20062;-60
2023/09/25 00:09:15;;;;;;;4.25;1.95;;;;;;;;;;7367898;19;20003;-60
2023/09/25 00:11:41;;;;;;;3.20;2.08;;;;;;;;;;7367737;19;20376;-61
2023/09/25 00:14:06;;;;;;;3.17;2.10;;;;;;;;;;7388573;19;20019;-59
2023/09/25 00:16:31;;;;;;;4.93;2.22;;;;;;;;;;7366739;19;20082;-61
2023/09/25 00:18:57;;;;;;;4.20;2.03;;;;;;;;;;7366965;19;20503;-61
2023/09/25 00:21:22;;;;;;;5.55;2.28;;;;;;;;;;7367483;19;20500;-61
2023/09/25 00:23:48;;;;;;;5.80;2.40;;;;;;;;;;7366012;19;20002;-60
2023/09/25 00:26:14;;;;;;;5.63;2.38;;;;;;;;;;7389396;19;20005;-61
2023/09/25 00:28:40;;;;;;;4.13;2.38;;;;;;;;;;7363950;19;20027;-60
2023/09/25 00:31:05;;;;;;;4.45;2.22;;;;;;;;;;7367296;19;20013;-60
2023/09/25 00:33:31;;;;;;;3.80;2.28;;;;;;;;;;7365831;19;20010;-61
2023/09/25 00:35:56;;;;;;;3.35;2.53;;;;;;;;;;7367028;19;20103;-59
2023/09/25 00:38:22;;;;;;;4.55;2.22;;;;;;;;;;7367560;19;19995;-61
2023/09/25 00:40:47;;;;;;;5.25;2.40;;;;;;;;;;7389530;19;20007;-60
2023/09/25 00:43:13;;;;;;;6.00;2.58;;;;;;;;;;7364991;19;20035;-60
2023/09/25 00:45:40;;;;;;;5.18;2.50;;;;;;;;;;7366769;19;20074;-60
2023/09/25 00:48:09;;;;;;;4.00;2.30;;;;;;;;;;7366234;19;20002;-60
2023/09/25 00:50:34;;;;;;;4.65;2.55;;;;;;;;;;7366298;19;19998;-61
2023/09/25 00:53:03;;;;;;;4.40;2.40;;;;;;;;;;7385240;19;20225;-61
2023/09/25 00:55:29;;;;;;;4.07;2.33;;;;;;;;;;7366007;19;20082;-65
2023/09/25 00:57:55;;;;;;;4.03;2.35;;;;;;;;;;7366440;19;20002;-60
2023/09/25 01:00:21;;;;;;;3.80;2.28;;;;;;;;;;7366110;19;20090;-60
2023/09/25 01:02:47;;;;;;;3.65;2.33;;;;;;;;;;7364924;19;20007;-59
2023/09/25 01:05:13;;;;;;;4.18;2.45;;;;;;;;;;7387558;19;20074;-59
2023/09/25 01:07:39;;;;;;;3.63;2.25;;;;;;;;;;7365280;19;20179;-59
2023/09/25 01:10:19;;;;;;;4.95;2.42;;;;;;;;;;7365260;19;19999;-60
2023/09/25 01:12:46;;;;;;;4.38;2.25;;;;;;;;;;7363768;19;20345;-57
2023/09/25 01:15:15;;;;;;;3.60;2.13;;;;;;;;;;7365533;19;20098;-59
2023/09/25 01:17:41;;;;;;;5.97;2.40;;;;;;;;;;7365554;19;20050;-60
2023/09/25 01:20:11;;;;;;;3.22;2.08;;;;;;;;;;7381495;19;20591;-61
2023/09/25 01:22:38;;;;;;;3.67;2.20;;;;;;;;;;7362603;19;20002;-57
2023/09/25 01:25:03;;;;;;;4.05;2.20;;;;;;;;;;7364343;19;20075;-61
2023/09/25 01:27:29;;;;;;;4.93;2.70;;;;;;;;;;7365091;19;20401;-60
2023/09/25 01:29:54;;;;;;;4.25;2.50;;;;;;;;;;7364725;19;20010;-56
2023/09/25 01:32:19;;;;;;;3.72;2.22;;;;;;;;;;7364691;19;20428;-60
2023/09/25 01:34:45;;;;;;;3.42;2.30;;;;;;;;;;7385140;19;19999;-61
2023/09/25 01:37:10;;;;;;;4.65;2.40;;;;;;;;;;7362379;19;20021;-58
2023/09/25 01:39:36;;;;;;;3.97;2.15;;;;;;;;;;7368008;19;20021;-60
2023/09/25 01:42:03;;;;;;;4.22;2.55;;;;;;;;;;7369027;19;20488;-59
2023/09/25 01:44:29;;;;;;;5.82;2.40;;;;;;;;;;7369832;19;20024;-61
2023/09/25 01:46:54;;;;;;;5.38;2.50;;;;;;;;;;7392550;19;19998;-60
2023/09/25 01:49:20;;;;;;;3.80;2.50;;;;;;;;;;7368048;19;20017;-56
2023/09/25 01:51:45;;;;;;;3.95;2.20;;;;;;;;;;7371522;19;20023;-61
2023/09/25 01:54:10;;;;;;;7.20;2.80;;;;;;;;;;7371653;19;20014;-60
2023/09/25 01:56:36;;;;;;;4.43;2.45;;;;;;;;;;7372055;19;20089;-61
2023/09/25 01:59:01;;;;;;;6.60;2.67;;;;;;;;;;7393992;19;20016;-64
2023/09/25 02:01:27;;;;;;;3.53;2.58;;;;;;;;;;7371041;19;20428;-61
2023/09/25 02:03:53;;;;;;;6.82;2.92;;;;;;;;;;7371678;19;20022;-61
2023/09/25 02:06:18;;;;;;;3.97;2.72;;;;;;;;;;7371100;19;20010;-60
2023/09/25 02:08:44;;;;;;;4.75;2.50;;;;;;;;;;7371027;19;20093;-60
2023/09/25 02:11:09;;;;;;;5.40;2.78;;;;;;;;;;7392793;19;20002;-61
2023/09/25 02:13:34;;;;;;;4.50;2.72;;;;;;;;;;7367741;19;20003;-61
2023/09/25 02:15:59;;;;;;;4.60;2.58;;;;;;;;;;7369810;19;20002;-61
2023/09/25 02:18:25;;;;;;;5.63;2.70;;;;;;;;;;7370729;19;20031;-61
2023/09/25 02:20:51;;;;;;;5.18;2.50;;;;;;;;;;7370984;19;20959;-59
2023/09/25 02:23:16;;;;;;;5.32;2.80;;;;;;;;;;7387230;19;20007;-58
2023/09/25 02:25:41;;;;;;;4.55;2.85;;;;;;;;;;7376321;19;20025;-60
2023/09/25 02:28:07;;;;;;;4.85;2.83;;;;;;;;;;7369901;19;20021;-58
2023/09/25 02:30:32;;;;;;;4.43;2.80;;;;;;;;;;7370362;19;20010;-61
2023/09/25 02:32:59;;;;;;;4.72;2.60;;;;;;;;;;7368883;19;20010;-60
2023/09/25 02:35:25;;;;;;;6.38;3.70;;;;;;;;;;7370470;19;20007;-61
2023/09/25 02:37:50;;;;;;;4.80;2.88;;;;;;;;;;7392075;19;20058;-58
2023/09/25 02:40:18;;;;;;;4.65;2.58;;;;;;;;;;7370732;19;20010;-61
2023/09/25 02:42:46;;;;;;;4.25;2.60;;;;;;;;;;7368606;19;20481;-61
2023/09/25 02:45:11;;;;;;;4.72;2.95;;;;;;;;;;7370430;19;20148;-61
2023/09/25 02:47:37;;;;;;;5.38;2.80;;;;;;;;;;7369932;19;20012;-61
2023/09/25 02:50:02;;;;;;;6.25;3.00;;;;;;;;;;7387999;19;20100;-61
2023/09/25 02:52:28;;;;;;;7.30;3.15;;;;;;;;;;7367937;19;20014;-60
2023/09/25 02:54:54;;;;;;;5.53;2.90;;;;;;;;;;7369109;19;20007;-60
2023/09/25 02:57:19;;;;;;;5.50;3.10;;;;;;;;;;7369730;19;20010;-61
2023/09/25 02:59:44;;;;;;;5.57;3.13;;;;;;;;;;7369677;19;20090;-59
2023/09/25 03:02:10;;;;;;;7.50;3.47;;;;;;;;;;7393609;19;20007;-61
2023/09/25 03:04:37;;;;;;;5.00;3.08;;;;;;;;;;7371557;19;20016;-59
2023/09/25 03:07:02;;;;;;;6.18;3.17;;;;;;;;;;7369479;19;20428;-60
2023/09/25 03:09:27;;;;;;;5.07;2.95;;;;;;;;;;7369127;19;20011;-60
2023/09/25 03:11:53;;;;;;;8.40;3.45;;;;;;;;;;7368765;19;20469;-61
2023/09/25 03:14:18;;;;;;;4.40;3.10;;;;;;;;;;7368840;19;20023;-60
2023/09/25 03:16:43;;;;;;;5.60;3.22;;;;;;;;;;7390792;19;19998;-61
2023/09/25 03:19:09;;;;;;;6.05;3.67;;;;;;;;;;7369077;19;20010;-62
2023/09/25 03:21:34;;;;;;;5.53;2.92;;;;;;;;;;7368815;19;20006;-61
2023/09/25 03:23:59;;;;;;;5.30;2.92;;;;;;;;;;7366935;19;20002;-60
2023/09/25 03:26:25;;;;;;;6.57;3.10;;;;;;;;;;7368716;19;19998;-60
2023/09/25 03:28:50;;;;;;;7.20;2.97;;;;;;;;;;7383188;19;20017;-65
2023/09/25 03:31:16;;;;;;;5.40;2.80;;;;;;;;;;7368322;19;20040;-60
2023/09/25 03:33:41;;;;;;;6.25;3.17;;;;;;;;;;7367785;19;20679;-60
2023/09/25 03:36:07;;;;;;;5.53;3.47;;;;;;;;;;7367828;19;20014;-59
2023/09/25 03:38:36;;;;;;;5.85;2.95;;;;;;;;;;7368537;19;20356;-61
2023/09/25 03:41:02;;;;;;;5.78;3.15;;;;;;;;;;7389962;19;20465;-62
2023/09/25 03:43:27;;;;;;;5.00;3.05;;;;;;;;;;7365590;19;20003;-59
2023/09/25 03:45:52;;;;;;;5.55;3.30;;;;;;;;;;7367569;19;20387;-58
2023/09/25 03:48:18;;;;;;;10.45;3.50;;;;;;;;;;7367473;19;20026;-59
2023/09/25 03:50:43;;;;;;;10.15;3.53;;;;;;;;;;7367795;19;20149;-61
2023/09/25 03:53:10;;;;;;;7.18;3.22;;;;;;;;;;7388552;19;20006;-59
2023/09/25 03:55:35;;;;;;;7.35;3.38;;;;;;;;;;7367690;19;20044;-60
2023/09/25 03:58:00;;;;;;;7.15;3.30;;;;;;;;;;7368602;19;20778;-63
2023/09/25 04:00:26;;;;;;;6.93;3.45;;;;;;;;;;7366115;19;20010;-59
2023/09/25 04:02:52;;;;;;;5.72;3.75;;;;;;;;;;7361099;19;20014;-61
2023/09/25 04:05:18;;;;;;;6.57;2.90;;;;;;;;;;7367216;19;20421;-59
2023/09/25 04:07:43;;;;;;;7.32;3.25;;;;;;;;;;7388052;19;20015;-56
2023/09/25 04:10:09;;;;;;;6.97;3.05;;;;;;;;;;7367280;19;20357;-57
2023/09/25 04:12:34;;;;;;;4.72;2.88;;;;;;;;;;7365771;19;20373;-60
2023/09/25 04:15:00;;;;;;;5.75;2.88;;;;;;;;;;7367638;19;20351;-60
2023/09/25 04:17:26;;;;;;;4.28;2.80;;;;;;;;;;7367367;19;20006;-60
2023/09/25 04:19:52;;;;;;;5.53;3.10;;;;;;;;;;7389476;19;20003;-59
2023/09/25 04:22:19;;;;;;;4.45;2.80;;;;;;;;;;7366233;19;20754;-60
2023/09/25 04:24:44;;;;;;;5.50;3.10;;;;;;;;;;7367193;19;20014;-61
2023/09/25 04:27:09;;;;;;;6.28;2.85;;;;;;;;;;7368279;19;20014;-60
2023/09/25 04:29:36;;;;;;;4.78;3.30;;;;;;;;;;7366590;19;20465;-57
2023/09/25 04:32:03;;;;;;;7.68;3.20;;;;;;;;;;7388770;19;20023;-61
2023/09/25 04:34:29;;;;;;;5.60;3.20;;;;;;;;;;7367565;19;20040;-60
2023/09/25 04:36:54;;;;;;;5.20;2.78;;;;;;;;;;7367337;19;20384;-60
2023/09/25 04:39:20;;;;;;;5.05;3.10;;;;;;;;;;7366724;19;20026;-59
2023/09/25 04:41:46;;;;;;;7.40;2.90;;;;;;;;;;7367439;19;20038;-59
2023/09/25 04:44:11;;;;;;;5.00;3.00;;;;;;;;;;7388720;19;20006;-59
2023/09/25 04:46:37;;;;;;;5.72;3.13;;;;;;;;;;7367470;19;20077;-59
2023/09/25 04:49:06;;;;;;;6.43;3.15;;;;;;;;;;7367011;19;20027;-61
2023/09/25 04:51:34;;;;;;;5.30;3.20;;;;;;;;;;7366828;19;20042;-58
2023/09/25 04:54:00;;;;;;;4.65;3.08;;;;;;;;;;7366562;19;20007;-58
2023/09/25 04:56:27;;;;;;;5.22;2.85;;;;;;;;;;7363819;19;20460;-59
2023/09/25 04:58:53;;;;;;;5.57;3.17;;;;;;;;;;7389354;19;20330;-61
2023/09/25 05:01:19;;;;;;;8.57;3.35;;;;;;;;;;7368190;19;20029;-59
2023/09/25 05:03:44;;;;;;;6.00;3.22;;;;;;;;;;7366654;19;20464;-61
2023/09/25 05:06:12;;;;;;;4.38;2.95;;;;;;;;;;7366583;19;20499;-58
2023/09/25 05:08:38;;;;;;;5.90;3.30;;;;;;;;;;7366470;19;20020;-60
2023/09/25 05:11:05;;;;;;;12.25;7.97;;;;;;;;;;7369483;19;20003;-59
2023/09/25 05:13:31;;;;;;;17.85;10.27;;;;;;;;;;7349744;19;20007;-61
2023/09/25 05:15:57;;;;;;;6.57;3.50;;;;;;;;;;7368824;19;20492;-60
2023/09/25 05:18:22;;;;;;;8.82;3.28;;;;;;;;;;7371782;19;20011;-60
2023/09/25 05:20:47;;;;;;;6.80;3.17;;;;;;;;;;7371948;19;20040;-60
2023/09/25 05:23:13;;;;;;;6.78;2.97;;;;;;;;;;7391112;19;20144;-60
2023/09/25 05:25:38;;;;;;;8.60;3.20;;;;;;;;;;7372260;19;20014;-61
2023/09/25 05:28:05;;;;;;;6.63;3.10;;;;;;;;;;7367536;19;20006;-63
2023/09/25 05:30:30;;;;;;;5.32;2.97;;;;;;;;;;7372198;19;20014;-60
2023/09/25 05:32:56;;;;;;;5.85;3.00;;;;;;;;;;7371668;19;20575;-61
2023/09/25 05:35:21;;;;;;;8.02;3.35;;;;;;;;;;7371233;19;20023;-59
2023/09/25 05:37:48;;;;;;;8.00;3.40;;;;;;;;;;7389435;19;20026;-58
2023/09/25 05:40:14;;;;;;;7.47;3.08;;;;;;;;;;7371755;19;20007;-59
2023/09/25 05:42:45;;;;;;;6.13;3.38;;;;;;;;;;7369252;19;20007;-61
2023/09/25 05:45:11;;;;;;;7.78;3.25;;;;;;;;;;7371330;19;20115;-60
2023/09/25 05:47:36;;;;;;;6.78;3.28;;;;;;;;;;7371832;19;20023;-59
2023/09/25 05:50:06;;;;;;;10.73;3.45;;;;;;;;;;7390693;19;20003;-59
2023/09/25 05:52:33;;;;;;;20.80;12.02;;;;;;;;;;7367608;19;20010;-59
2023/09/25 05:54:58;;;;;;;14.57;7.70;;;;;;;;;;7365527;19;20099;-61
2023/09/25 05:57:23;;;;;;;9.60;5.80;;;;;;;;;;7368350;19;20065;-60
2023/09/25 05:59:49;;;;;;;7.32;3.63;;;;;;;;;;7369457;19;20006;-59
2023/09/25 06:02:14;;;;;;;6.07;3.55;;;;;;;;;;7392820;19;20472;-58
2023/09/25 06:04:40;;;;;;;7.70;3.47;;;;;;;;;;7370202;19;20014;-58
2023/09/25 06:07:05;;;;;;;6.70;3.65;;;;;;;;;;7371155;19;20010;-59
2023/09/25 06:09:34;;;;;;;7.40;3.65;;;;;;;;;;7370388;19;20029;-61
2023/09/25 06:11:59;;;;;;;6.97;3.45;;;;;;;;;;7370273;19;20007;-58
2023/09/25 06:14:28;;;;;;;7.32;3.40;;;;;;;;;;7371259;19;20010;-58
2023/09/25 06:16:55;;;;;;;6.70;3.80;;;;;;;;;;7393477;19;19999;-60
2023/09/25 06:19:20;;;;;;;9.23;3.85;;;;;;;;;;7370105;19;20043;-57
2023/09/25 06:21:47;;;;;;;7.03;3.55;;;;;;;;;;7370448;19;20018;-60
2023/09/25 06:24:12;;;;;;;5.68;3.22;;;;;;;;;;7369146;19;20021;-61
2023/09/25 06:26:39;;;;;;;8.05;3.97;;;;;;;;;;7368834;19;20074;-61
2023/09/25 06:29:06;;;;;;;5.78;3.25;;;;;;;;;;7391421;19;20017;-61
2023/09/25 06:31:31;;;;;;;5.00;3.45;;;;;;;;;;7371388;19;20007;-61
2023/09/25 06:33:56;;;;;;;6.63;3.47;;;;;;;;;;7371487;19;20075;-59
2023/09/25 06:36:22;;;;;;;7.05;3.72;;;;;;;;;;7372949;19;20049;-62
2023/09/25 06:38:47;;;;;;;6.65;3.00;;;;;;;;;;7371943;19;20070;-60
2023/09/25 06:41:13;;;;;;;6.47;3.40;;;;;;;;;;7392455;19;20010;-58
2023/09/25 06:43:39;;;;;;;4.70;2.75;;;;;;;;;;7367473;19;20003;-61
2023/09/25 06:46:04;;;;;;;5.63;3.13;;;;;;;;;;7369674;19;20552;-60
2023/09/25 06:48:32;;;;;;;5.35;2.95;;;;;;;;;;7368828;19;20014;-60
2023/09/25 06:50:57;;;;;;;9.65;6.47;;;;;;;;;;7369483;19;19999;-60
2023/09/25 06:53:23;;;;;;;8.85;4.13;;;;;;;;;;7368132;19;20013;-61
2023/09/25 06:55:48;;;;;;;5.15;2.90;;;;;;;;;;7389236;19;20009;-61
2023/09/25 06:58:13;;;;;;;4.63;2.78;;;;;;;;;;7368552;19;20010;-61
2023/09/25 07:00:39;;;;;;;6.00;2.80;;;;;;;;;;7369027;19;20023;-60
2023/09/25 07:03:04;;;;;;;6.18;2.53;;;;;;;;;;7369625;19;20003;-60
2023/09/25 07:05:29;;;;;;;7.05;2.78;;;;;;;;;;7370112;19;20456;-58
2023/09/25 07:07:56;;;;;;;3.90;2.70;;;;;;;;;;7392770;19;19995;-58
2023/09/25 07:10:22;;;;;;;5.35;3.00;;;;;;;;;;7368543;19;20411;-59
2023/09/25 07:12:47;;;;;;;5.97;2.78;;;;;;;;;;7367090;19;20010;-59
2023/09/25 07:15:12;;;;;;;5.80;2.92;;;;;;;;;;7369005;19;20006;-60
2023/09/25 07:17:38;;;;;;;6.05;2.80;;;;;;;;;;7369448;19;20068;-57
2023/09/25 07:20:05;;;;;;;5.38;2.55;;;;;;;;;;7390401;19;20006;-59
2023/09/25 07:22:31;;;;;;;5.40;2.65;;;;;;;;;;7366902;19;20080;-60
2023/09/25 07:24:57;;;;;;;8.57;3.08;;;;;;;;;;7369362;19;20003;-60
2023/09/25 07:27:22;;;;;;;5.55;2.70;;;;;;;;;;7369447;19;20416;-60
2023/09/25 07:29:48;;;;;;;4.40;2.55;;;;;;;;;;7368940;19;20006;-58
2023/09/25 07:32:14;;;;;;;5.85;2.60;;;;;;;;;;7388516;19;20006;-59
2023/09/25 07:34:42;;;;;;;5.03;2.25;;;;;;;;;;7368113;19;20017;-60
2023/09/25 07:37:08;;;;;;;7.43;4.43;;;;;;;;;;7368117;19;20065;-60
2023/09/25 07:39:40;;;;;;;5.68;2.90;;;;;;;;;;7370160;19;20072;-60
2023/09/25 07:42:05;;;;;;;5.13;2.67;;;;;;;;;;7367894;19;20083;-60
2023/09/25 07:44:33;;;;;;;3.88;2.33;;;;;;;;;;7368275;19;20003;-60
2023/09/25 07:46:59;;;;;;;4.47;2.70;;;;;;;;;;7390127;19;20094;-61
2023/09/25 07:49:25;;;;;;;4.88;2.53;;;;;;;;;;7366715;19;20010;-63
2023/09/25 07:51:51;;;;;;;5.13;2.60;;;;;;;;;;7367017;19;20090;-59
2023/09/25 07:54:17;;;;;;;5.55;2.50;;;;;;;;;;7368207;19;20008;-59
2023/09/25 07:56:42;;;;;;;4.25;2.67;;;;;;;;;;7367889;19;20034;-61
2023/09/25 07:59:13;;;;;;;6.10;2.75;;;;;;;;;;7389284;19;20013;-60
2023/09/25 08:01:39;;;;;;;5.38;2.67;;;;;;;;;;7367880;19;20021;-60
2023/09/25 08:04:05;;;;;;;6.85;2.70;;;;;;;;;;7366007;19;20010;-58
2023/09/25 08:06:31;;;;;;;5.07;2.60;;;;;;;;;;7366755;19;20089;-64
2023/09/25 08:08:59;;;;;;;4.30;2.50;;;;;;;;;;7367266;19;20027;-61
2023/09/25 08:11:25;;;;;;;4.95;2.72;;;;;;;;;;7366442;19;20013;-61
2023/09/25 08:13:53;;;;;;;3.20;2.15;;;;;;;;;;7387923;19;19995;-58
2023/09/25 08:16:18;;;;;;;4.13;2.42;;;;;;;;;;7366503;19;20030;-61
2023/09/25 08:18:44;;;;;;;4.57;2.53;;;;;;;;;;7366108;19;20069;-58
2023/09/25 08:21:09;;;;;;;9.10;2.60;;;;;;;;;;7365336;19;20003;-58
2023/09/25 08:23:35;;;;;;;5.10;2.47;;;;;;;;;;7363971;19;20129;-59
2023/09/25 08:26:00;;;;;;;4.68;2.40;;;;;;;;;;7387437;19;20006;-60
2023/09/25 08:28:25;;;;;;;5.70;2.35;;;;;;;;;;7366316;19;20491;-56
2023/09/25 08:30:51;;;;;;;6.30;2.67;;;;;;;;;;7366727;19;20006;-59
2023/09/25 08:33:16;;;;;;;3.80;1.98;;;;;;;;;;7366022;19;20027;-60
2023/09/25 08:35:43;;;;;;;4.35;2.40;;;;;;;;;;7365653;19;20006;-58
2023/09/25 08:38:08;;;;;;;7.20;3.60;;;;;;;;;;7387501;19;20326;-58
2023/09/25 08:40:38;;;;;;;3.45;2.20;;;;;;;;;;7364880;19;19999;-61
2023/09/25 08:43:05;;;;;;;4.45;2.30;;;;;;;;;;7363796;19;20014;-60
2023/09/25 08:45:32;;;;;;;5.18;2.65;;;;;;;;;;7364194;19;20007;-59
2023/09/25 08:47:57;;;;;;;4.10;2.20;;;;;;;;;;7366372;19;20037;-60
2023/09/25 08:50:23;;;;;;;5.68;2.83;;;;;;;;;;7370048;19;20006;-61
2023/09/25 08:52:48;;;;;;;4.38;2.50;;;;;;;;;;7392985;19;20003;-59
2023/09/25 08:55:13;;;;;;;4.22;1.83;;;;;;;;;;7373594;19;20452;-59
2023/09/25 08:57:39;;;;;;;5.78;2.30;;;;;;;;;;7372400;19;20445;-58
2023/09/25 09:00:14;;;;;;;5.90;2.35;;;;;;;;;;7371693;19;20002;-59
2023/09/25 09:02:40;;;;;;;5.30;2.30;;;;;;;;;;7371890;19;20070;-60
2023/09/25 09:05:16;;;;;;;7.25;2.55;;;;;;;;;;7394475;19;20007;-59
2023/09/25 09:08:00;;;;;;;5.70;2.17;;;;;;;;;;7373226;19;20006;-60
2023/09/25 09:10:43;;;;;;;6.40;2.38;;;;;;;;;;7372682;19;20027;-60
2023/09/25 09:13:10;;;;;;;6.10;2.20;;;;;;;;;;7369800;19;20035;-59
2023/09/25 09:15:36;;;;;;;4.45;2.40;;;;;;;;;;7372327;19;19999;-65
2023/09/25 09:18:18;;;;;;;4.03;2.00;;;;;;;;;;7372287;19;20480;-60
2023/09/25 09:20:44;;;;;;;3.60;1.92;;;;;;;;;;7372580;19;20006;-61
2023/09/25 09:23:09;;;;;;;4.43;1.88;;;;;;;;;;7391143;19;20003;-59
2023/09/25 09:25:35;;;;;;;7.55;4.75;;;;;;;;;;7372991;19;20103;-59
2023/09/25 09:28:03;;;;;;;3.22;1.90;;;;;;;;;;7372162;19;19994;-57
2023/09/25 09:30:29;;;;;;;4.38;2.10;;;;;;;;;;7370363;19;20010;-58
2023/09/25 09:32:54;;;;;;;5.97;1.95;;;;;;;;;;7370498;19;20041;-59
2023/09/25 09:35:25;;;;;;;2.90;1.85;;;;;;;;;;7372068;19;20414;-59
2023/09/25 09:37:54;;;;;;;;;;;;;;;;;;7391457;19;20003;-57
2023/09/25 09:40:30;;;;;;;6.17;2.00;;;;;;;;;;7371111;19;19935;-60
2023/09/25 09:42:56;;;;;;;4.55;2.13;;;;;;;;;;7369725;19;20835;-60
2023/09/25 09:45:21;;;;;;;2.72;1.70;;;;;;;;;;7372297;19;20018;-60
2023/09/25 09:47:49;;;;;;;4.15;1.85;;;;;;;;;;7371597;19;20017;-60
2023/09/25 09:50:22;;;;;;;4.18;2.10;;;;;;;;;;7390925;19;20090;-60
2023/09/25 09:52:48;;;;;;;3.85;1.70;;;;;;;;;;7369656;19;20395;-58
2023/09/25 09:55:14;;;;;;;7.78;1.92;;;;;;;;;;7371862;19;20015;-59
2023/09/25 09:57:41;;;;;;;3.83;1.80;;;;;;;;;;7370504;19;20010;-61
2023/09/25 10:00:08;;;;;;;4.13;1.85;;;;;;;;;;7371365;19;20025;-61
2023/09/25 10:02:34;;;;;;;3.03;1.60;;;;;;;;;;7369113;19;20007;-61
2023/09/25 10:05:00;;;;;;;4.32;1.83;;;;;;;;;;7390896;19;20023;-61
2023/09/25 10:07:26;;;;;;;2.75;1.80;;;;;;;;;;7370677;19;20018;-60
2023/09/25 10:09:58;;;;;;;2.65;1.70;;;;;;;;;;7370486;19;20499;-60
2023/09/25 10:12:47;;;;;;;2.92;1.73;;;;;;;;;;7369338;19;20517;-60
2023/09/25 10:15:16;;;;;;;;;;;;;;;;;;7368955;19;20014;-59
2023/09/25 10:17:45;;;;;;;3.80;1.80;;;;;;;;;;7370927;19;19934;-61
2023/09/25 10:20:28;;;;;;;2.78;1.80;;;;;;;;;;7391636;19;19995;-61
2023/09/25 10:22:53;;;;;;;3.10;1.70;;;;;;;;;;7368185;19;20549;-58
2023/09/25 10:25:19;;;;;;;2.78;1.70;;;;;;;;;;7370462;19;20027;-59
2023/09/25 10:27:44;;;;;;;3.15;1.70;;;;;;;;;;7368673;19;20034;-59
2023/09/25 10:30:13;;;;;;;9.18;2.30;;;;;;;;;;7368134;19;20009;-61
2023/09/25 10:32:42;;;;;;;;;;;;;;;;;;7366337;19;20011;-61
2023/09/25 10:35:40;;;;;;;3.13;1.90;;;;;;;;;;7391073;19;19911;-60
2023/09/25 10:38:09;;;;;;;4.18;1.73;;;;;;;;;;7369636;19;20011;-61
2023/09/25 10:40:36;;;;;;;1.95;1.60;;;;;;;;;;7370172;19;20024;-61
2023/09/25 10:43:02;;;;;;;3.75;1.90;;;;;;;;;;7368103;19;20085;-61
2023/09/25 10:45:27;;;;;;;2.55;1.80;;;;;;;;;;7370977;19;20010;-61
2023/09/25 10:47:52;;;;;;;2.20;1.60;;;;;;;;;;7370167;19;20026;-61
2023/09/25 10:50:18;;;;;;;3.87;1.80;;;;;;;;;;7371823;19;19999;-61
2023/09/25 10:52:43;;;;;;;2.80;1.55;;;;;;;;;;7389582;19;20268;-61
2023/09/25 10:55:09;;;;;;;2.97;1.40;;;;;;;;;;7369968;19;20027;-61
2023/09/25 10:57:34;;;;;;;3.15;1.85;;;;;;;;;;7370022;19;20271;-61
2023/09/25 11:00:09;;;;;;;3.03;1.60;;;;;;;;;;7369655;19;20078;-61
2023/09/25 11:02:34;;;;;;;3.08;1.60;;;;;;;;;;7367792;19;20016;-60
2023/09/25 11:05:02;;;;;;;4.72;1.77;;;;;;;;;;7391339;19;20460;-60
2023/09/25 11:07:28;;;;;;;2.88;1.70;;;;;;;;;;7368207;19;20618;-60
2023/09/25 11:09:53;;;;;;;2.88;1.70;;;;;;;;;;7369110;19;20003;-60
2023/09/25 11:12:19;;;;;;;4.90;1.80;;;;;;;;;;7366448;19;20657;-59
2023/09/25 11:14:44;;;;;;;3.22;1.73;;;;;;;;;;7369794;19;20022;-59
2023/09/25 11:17:10;;;;;;;2.60;1.65;;;;;;;;;;7391117;19;20005;-58
2023/09/25 11:19:35;;;;;;;3.53;1.80;;;;;;;;;;7368572;19;20377;-59
2023/09/25 11:22:03;;;;;;;3.73;2.03;;;;;;;;;;7367810;19;20767;-61
2023/09/25 11:24:31;;;;;;;2.38;1.50;;;;;;;;;;7368214;19;20013;-60
2023/09/25 11:26:57;;;;;;;3.17;1.60;;;;;;;;;;7367661;19;20023;-58
2023/09/25 11:29:30;;;;;;;2.35;1.63;;;;;;;;;;7367849;19;20015;-60
2023/09/25 11:31:55;;;;;;;2.67;1.65;;;;;;;;;;7388294;19;20026;-60
2023/09/25 11:34:21;;;;;;;2.60;1.67;;;;;;;;;;7367254;19;20559;-60
2023/09/25 11:36:46;;;;;;;2.17;1.55;;;;;;;;;;7367571;19;20006;-61
2023/09/25 11:39:16;;;;;;;3.50;1.98;;;;;;;;;;7368990;19;20018;-59
2023/09/25 11:41:41;;;;;;;5.22;3.38;;;;;;;;;;7367567;19;20378;-60
2023/09/25 11:44:09;;;;;;;2.55;1.80;;;;;;;;;;7389341;19;20010;-58
2023/09/25 11:46:34;;;;;;;3.63;1.88;;;;;;;;;;7367775;19;20014;-60
2023/09/25 11:49:00;;;;;;;3.63;1.88;;;;;;;;;;7366399;19;21058;-60
2023/09/25 11:51:26;;;;;;;3.47;1.80;;;;;;;;;;7366215;19;20014;-60
2023/09/25 11:53:52;;;;;;;3.05;1.85;;;;;;;;;;7368078;19;20044;-59
2023/09/25 11:56:18;;;;;;;3.25;1.80;;;;;;;;;;7377120;19;20010;-60
2023/09/25 11:58:43;;;;;;;3.15;1.55;;;;;;;;;;7387553;19;20375;-60
2023/09/25 12:01:08;;;;;;;3.13;2.20;;;;;;;;;;7369481;19;20010;-60
2023/09/25 12:03:38;;;;;;;3.67;1.80;;;;;;;;;;7369468;19;20239;-59
2023/09/25 12:06:06;;;;;;;2.33;1.63;;;;;;;;;;7368244;19;20006;-61
2023/09/25 12:08:33;;;;;;;2.10;1.60;;;;;;;;;;7365577;19;20063;-61
2023/09/25 12:10:58;;;;;;;4.50;1.92;;;;;;;;;;7389323;19;20235;-60
2023/09/25 12:13:24;;;;;;;3.50;1.80;;;;;;;;;;7363934;19;20021;-59
2023/09/25 12:15:50;;;;;;;2.88;1.70;;;;;;;;;;7364855;19;20010;-61
2023/09/25 12:18:15;;;;;;;2.55;1.75;;;;;;;;;;7365712;19;20002;-61
2023/09/25 12:20:41;;;;;;;3.22;1.80;;;;;;;;;;7366606;19;20006;-61
2023/09/25 12:23:07;;;;;;;4.18;1.73;;;;;;;;;;7383957;19;20442;-60
2023/09/25 12:25:33;;;;;;;2.97;1.70;;;;;;;;;;7366712;19;20002;-60
2023/09/25 12:27:58;;;;;;;3.15;1.80;;;;;;;;;;7366513;19;20007;-58
2023/09/25 12:30:24;;;;;;;4.20;2.00;;;;;;;;;;7366386;19;20074;-60
2023/09/25 12:32:49;;;;;;;2.58;1.60;;;;;;;;;;7364294;19;20513;-59
2023/09/25 12:35:16;;;;;;;2.65;1.90;;;;;;;;;;7387720;19;20006;-60
2023/09/25 12:37:43;;;;;;;3.97;1.73;;;;;;;;;;7366396;19;20006;-58
2023/09/25 12:40:09;;;;;;;3.05;1.75;;;;;;;;;;7367022;19;20035;-60
2023/09/25 12:42:35;;;;;;;2.55;1.80;;;;;;;;;;7363029;19;19998;-60
2023/09/25 12:45:00;;;;;;;2.10;1.73;;;;;;;;;;7366036;19;20011;-59
2023/09/25 12:47:26;;;;;;;4.18;2.10;;;;;;;;;;7366503;19;20606;-61
2023/09/25 12:49:53;;;;;;;3.42;1.88;;;;;;;;;;7386268;19;20002;-61
2023/09/25 12:52:18;;;;;;;2.45;1.73;;;;;;;;;;7364328;19;20033;-61
2023/09/25 12:54:43;;;;;;;3.70;1.70;;;;;;;;;;7364019;19;20036;-61
2023/09/25 12:57:09;;;;;;;3.07;1.90;;;;;;;;;;7365963;19;20299;-61
2023/09/25 12:59:34;;;;;;;3.35;1.67;;;;;;;;;;7363796;19;19998;-60
2023/09/25 13:02:00;;;;;;;5.50;2.03;;;;;;;;;;7385612;19;20006;-60
2023/09/25 13:04:26;;;;;;;2.47;1.70;;;;;;;;;;7363454;19;20773;-61
2023/09/25 13:06:53;;;;;;;1.98;1.60;;;;;;;;;;7365863;19;20039;-59
2023/09/25 13:09:20;;;;;;;3.20;1.90;;;;;;;;;;7365928;19;20551;-59
2023/09/25 13:11:46;;;;;;;2.47;1.65;;;;;;;;;;7364528;19;20029;-60
2023/09/25 13:14:11;;;;;;;2.72;1.70;;;;;;;;;;7386284;19;20009;-59
2023/09/25 13:16:37;;;;;;;3.42;1.80;;;;;;;;;;7364700;19;20035;-60
2023/09/25 13:19:03;;;;;;;4.03;1.70;;;;;;;;;;7364315;19;20381;-60
2023/09/25 13:21:28;;;;;;;2.35;1.67;;;;;;;;;;7363222;19;20010;-60
2023/09/25 13:23:56;;;;;;;2.53;1.75;;;;;;;;;;7362533;19;20010;-62
2023/09/25 13:26:23;;;;;;;4.43;2.00;;;;;;;;;;7365329;19;20011;-60
2023/09/25 13:28:48;;;;;;;1.85;1.50;;;;;;;;;;7386184;19;20003;-61
2023/09/25 13:31:13;;;;;;;5.85;2.03;;;;;;;;;;7364478;19;20070;-59
2023/09/25 13:33:39;;;;;;;2.77;1.67;;;;;;;;;;7362261;19;20499;-60
2023/09/25 13:36:05;;;;;;;3.13;1.70;;;;;;;;;;7370950;19;20813;-60
2023/09/25 13:38:31;;;;;;;3.63;1.70;;;;;;;;;;7371736;19;20031;-60
2023/09/25 13:40:57;;;;;;;3.75;1.77;;;;;;;;;;7394651;19;20021;-60
2023/09/25 13:43:22;;;;;;;3.25;1.63;;;;;;;;;;7368521;19;20002;-58
2023/09/25 13:45:47;;;;;;;2.03;1.67;;;;;;;;;;7369344;19;20443;-58
2023/09/25 13:48:12;;;;;;;2.90;1.73;;;;;;;;;;7371284;19;20796;-59
2023/09/25 13:50:38;;;;;;;2.80;1.67;;;;;;;;;;7371693;19;20018;-59
2023/09/25 13:53:03;;;;;;;4.88;1.90;;;;;;;;;;7390581;19;20015;-60
2023/09/25 13:55:28;;;;;;;5.30;1.98;;;;;;;;;;7370949;19;20050;-60
2023/09/25 13:57:54;;;;;;;1.75;1.58;;;;;;;;;;7370541;19;20100;-60
2023/09/25 14:00:20;;;;;;;2.35;1.70;;;;;;;;;;7370778;19;20018;-60
2023/09/25 14:02:45;;;;;;;2.80;1.73;;;;;;;;;;7368783;19;20353;-58
2023/09/25 14:05:14;;;;;;;3.13;1.80;;;;;;;;;;7392628;19;20006;-59
2023/09/25 14:07:40;;;;;;;2.67;1.90;;;;;;;;;;7370963;19;20040;-60
2023/09/25 14:10:06;;;;;;;7.35;5.75;;;;;;;;;;7371250;19;20013;-61
2023/09/25 14:12:31;;;;;;;2.88;1.50;;;;;;;;;;7368558;19;20010;-60
2023/09/25 14:14:57;;;;;;;2.40;1.70;;;;;;;;;;7369885;19;20014;-61
2023/09/25 14:17:22;;;;;;;3.22;1.70;;;;;;;;;;7369859;19;20275;-60
2023/09/25 14:19:47;;;;;;;3.25;1.80;;;;;;;;;;7389431;19;20002;-58
2023/09/25 14:22:13;;;;;;;3.30;1.80;;;;;;;;;;7368431;19;20021;-61
2023/09/25 14:24:38;;;;;;;3.22;2.03;;;;;;;;;;7367540;19;20776;-60
2023/09/25 14:27:03;;;;;;;2.87;1.80;;;;;;;;;;7370667;19;20121;-61
2023/09/25 14:29:32;;;;;;;2.30;1.60;;;;;;;;;;7370282;19;20454;-59
2023/09/25 14:31:58;;;;;;;2.40;1.77;;;;;;;;;;7391123;19;20027;-58
2023/09/25 14:34:23;;;;;;;2.47;1.63;;;;;;;;;;7369874;19;20014;-61
2023/09/25 14:36:49;;;;;;;2.78;1.70;;;;;;;;;;7370627;19;20103;-61
2023/09/25 14:39:16;;;;;;;3.63;1.90;;;;;;;;;;7368632;19;20922;-59